Time;durP1;ratioP1;P1;durP2;ratioP2;P2;SDS_P1;SDS_P2;PMS_P1;PMS_P2;Temp;Humidity;BMP_temperature;BMP_pressure;BME280_temperature;BME280_humidity;BME280_pressure;Samples;Min_cycle;Max_cycle;Signal;HPM_P1;HPM_P2
2022/07/31 00:00:14;;;;;;;9.65;8.85;;;;;;;17.64;100.00;98117.80;2159276;81;20971;-83
2022/07/31 00:03:14;;;;;;;9.53;8.63;;;;;;;17.59;100.00;98111.33;2160315;82;20953;-85
2022/07/31 00:06:14;;;;;;;9.80;9.00;;;;;;;17.55;100.00;98107.05;2154309;83;20921;-84
2022/07/31 00:09:14;;;;;;;9.40;8.38;;;;;;;17.54;100.00;98109.73;2154370;83;20909;-84
2022/07/31 00:12:15;;;;;;;8.93;8.23;;;;;;;17.51;100.00;98112.00;2153999;83;20989;-84
2022/07/31 00:15:15;;;;;;;8.58;7.60;;;;;;;17.49;100.00;98101.94;2154129;83;20944;-83
2022/07/31 00:18:15;;;;;;;8.03;7.22;;;;;;;17.50;100.00;98104.98;2154208;83;21329;-84
2022/07/31 00:21:17;;;;;;;7.97;7.17;;;;;;;17.48;100.00;98101.07;2154278;83;21041;-85
2022/07/31 00:24:16;;;;;;;7.17;6.67;;;;;;;17.48;100.00;98106.80;2154549;83;20920;-84
2022/07/31 00:27:17;;;;;;;7.70;7.00;;;;;;;17.49;100.00;98103.26;2154888;83;21305;-85
2022/07/31 00:30:17;;;;;;;8.15;7.37;;;;;;;17.49;100.00;98104.13;2154375;83;20926;-84
2022/07/31 00:33:17;;;;;;;7.65;6.85;;;;;;;17.50;100.00;98104.53;2154530;83;20973;-85
2022/07/31 00:36:18;;;;;;;7.30;6.60;;;;;;;17.51;100.00;98100.12;2154556;83;20941;-86
2022/07/31 00:39:18;;;;;;;6.87;6.28;;;;;;;17.53;100.00;98103.58;2154430;83;20898;-85
2022/07/31 00:42:19;;;;;;;7.05;6.35;;;;;;;17.51;100.00;98101.44;2154324;83;20997;-84
2022/07/31 00:45:19;;;;;;;6.67;5.90;;;;;;;17.50;100.00;98103.22;2155047;83;20902;-84
2022/07/31 00:48:19;;;;;;;6.85;5.50;;;;;;;17.50;100.00;98099.26;2154541;83;20957;-84
2022/07/31 00:51:20;;;;;;;5.58;5.12;;;;;;;17.49;100.00;98100.63;2154422;83;20934;-85
2022/07/31 00:54:20;;;;;;;6.70;5.30;;;;;;;17.48;100.00;98097.56;2154634;83;21304;-84
2022/07/31 00:57:21;;;;;;;4.87;4.58;;;;;;;17.47;100.00;98101.98;2154543;83;20922;-85
2022/07/31 01:00:22;;;;;;;5.58;4.87;;;;;;;17.46;100.00;98100.25;2156092;82;20933;-84
2022/07/31 01:03:22;;;;;;;5.30;4.87;;;;;;;17.44;100.00;98092.83;2142007;83;20970;-84
2022/07/31 01:06:22;;;;;;;6.00;4.65;;;;;;;17.43;100.00;98095.05;2167316;81;20965;-84
2022/07/31 01:09:22;;;;;;;5.03;4.40;;;;;;;17.42;100.00;98101.70;2142241;82;20966;-85
2022/07/31 01:12:23;;;;;;;4.65;4.25;;;;;;;17.42;100.00;98102.56;2228269;79;20991;-85
2022/07/31 01:15:23;;;;;;;4.15;3.85;;;;;;;17.45;100.00;98097.20;2228367;79;20968;-84
2022/07/31 01:18:24;;;;;;;3.85;3.55;;;;;;;17.46;100.00;98099.39;2228775;79;20913;-84
2022/07/31 01:21:24;;;;;;;3.85;3.47;;;;;;;17.48;100.00;98096.25;2228689;79;20944;-85
2022/07/31 01:24:24;;;;;;;3.58;3.33;;;;;;;17.47;100.00;98095.84;2228887;79;20921;-84
2022/07/31 01:27:25;;;;;;;4.90;3.20;;;;;;;17.46;100.00;98096.75;2228835;79;20906;-84
2022/07/31 01:30:25;;;;;;;3.58;2.95;;;;;;;17.45;100.00;98093.70;2228784;79;20908;-85
2022/07/31 01:33:26;;;;;;;2.45;2.35;;;;;;;17.42;100.00;98094.64;2228688;80;21299;-84
2022/07/31 01:36:26;;;;;;;2.35;2.20;;;;;;;17.39;100.00;98087.27;2228691;79;20881;-84
2022/07/31 01:39:26;;;;;;;3.35;2.33;;;;;;;17.37;100.00;98086.45;2228170;79;21142;-84
2022/07/31 01:42:27;;;;;;;1.67;1.57;;;;;;;17.31;100.00;98085.27;2228265;79;21336;-85
2022/07/31 01:45:27;;;;;;;1.95;1.85;;;;;;;17.27;100.00;98087.57;2228180;79;20889;-85
2022/07/31 01:48:28;;;;;;;1.77;1.60;;;;;;;17.23;100.00;98085.47;2228572;79;20905;-84
2022/07/31 01:51:28;;;;;;;1.30;1.30;;;;;;;17.18;100.00;98085.59;2228431;79;20909;-84
2022/07/31 01:54:29;;;;;;;1.72;1.62;;;;;;;17.14;100.00;98080.44;2228287;79;21244;-85
2022/07/31 01:57:30;;;;;;;1.80;1.67;;;;;;;17.07;100.00;98083.69;2228367;79;20908;-86
2022/07/31 02:00:29;;;;;;;1.20;1.20;;;;;;;17.03;100.00;98082.49;2228711;79;20952;-84
2022/07/31 02:03:30;;;;;;;1.80;1.42;;;;;;;17.01;100.00;98079.90;2228301;79;20948;-85
2022/07/31 02:06:30;;;;;;;1.20;1.20;;;;;;;17.00;100.00;98076.84;2181811;82;20904;-84
2022/07/31 02:09:31;;;;;;;2.42;1.40;;;;;;;16.95;100.00;98075.23;2167791;82;20917;-84
2022/07/31 02:12:31;;;;;;;2.55;1.50;;;;;;;16.90;100.00;98074.03;2142743;82;21382;-85
2022/07/31 02:15:32;;;;;;;1.20;1.20;;;;;;;16.88;100.00;98074.08;2167687;81;21348;-85
2022/07/31 02:18:32;;;;;;;3.12;1.60;;;;;;;16.83;100.00;98079.05;2142706;82;20919;-85
2022/07/31 02:21:33;;;;;;;1.57;1.47;;;;;;;16.80;100.00;98076.50;2167832;81;20948;-84
2022/07/31 02:24:33;;;;;;;1.60;1.50;;;;;;;16.77;100.00;98073.94;2142690;82;20955;-84
2022/07/31 02:27:33;;;;;;;1.70;1.12;;;;;;;16.74;100.00;98076.20;2167857;82;21292;-84
2022/07/31 02:30:34;;;;;;;1.60;1.47;;;;;;;16.73;100.00;98082.37;2142282;82;20908;-84
2022/07/31 02:33:35;;;;;;;6.08;1.15;;;;;;;16.73;100.00;98078.42;2167116;81;20936;-85
2022/07/31 02:36:34;;;;;;;1.32;1.07;;;;;;;16.71;100.00;98076.72;2142595;82;20919;-84
2022/07/31 02:39:35;;;;;;;3.05;1.27;;;;;;;16.71;100.00;98074.09;2167683;81;20971;-84
2022/07/31 02:42:35;;;;;;;1.98;1.25;;;;;;;16.70;100.00;98077.63;2142195;82;20994;-84
2022/07/31 02:45:36;;;;;;;1.35;0.90;;;;;;;16.67;100.00;98069.80;2167731;81;20933;-84
2022/07/31 02:48:36;;;;;;;0.90;0.90;;;;;;;16.66;100.00;98066.75;2142084;82;20927;-84
2022/07/31 02:51:37;;;;;;;1.15;1.07;;;;;;;16.59;100.00;98064.69;2167578;81;21301;-84
2022/07/31 02:54:41;;;;;;;1.22;1.15;;;;;;;16.56;100.00;98072.21;2141938;82;20935;-84
2022/07/31 02:57:40;;;;;;;1.12;1.00;;;;;;;16.57;100.00;98073.08;2167250;81;20960;-83
2022/07/31 03:00:41;;;;;;;0.80;0.80;;;;;;;16.54;100.00;98071.38;2142049;81;20968;-84
2022/07/31 03:03:41;;;;;;;0.90;0.90;;;;;;;16.51;100.00;98076.73;2167701;81;20964;-84
2022/07/31 03:06:42;;;;;;;1.80;0.78;;;;;;;16.48;100.00;98076.80;2142378;82;20960;-84
2022/07/31 03:09:42;;;;;;;0.90;0.90;;;;;;;16.44;100.00;98075.11;2167554;81;20913;-84
2022/07/31 03:12:42;;;;;;;1.42;1.12;;;;;;;16.41;100.00;98075.18;2142216;82;20912;-84
2022/07/31 03:15:43;;;;;;;0.90;0.90;;;;;;;16.37;100.00;98068.25;2167650;81;20960;-84
2022/07/31 03:18:43;;;;;;;0.98;0.80;;;;;;;16.33;100.00;98067.91;2142320;82;20947;-84
2022/07/31 03:21:44;;;;;;;0.82;0.82;;;;;;;16.27;100.00;98070.69;2167262;81;20933;-84
2022/07/31 03:24:44;;;;;;;6.33;1.07;;;;;;;16.21;100.00;98069.52;2141842;82;20939;-84
2022/07/31 03:27:44;;;;;;;1.75;0.90;;;;;;;16.18;100.00;98070.45;2167476;81;20913;-84
2022/07/31 03:30:45;;;;;;;2.10;0.95;;;;;;;16.18;100.00;98076.17;2142027;82;21291;-84
2022/07/31 03:33:45;;;;;;;1.85;0.98;;;;;;;16.15;100.00;98068.34;2167470;81;20949;-83
2022/07/31 03:36:47;;;;;;;0.75;0.75;;;;;;;16.11;100.00;98066.23;2142184;82;20920;-84
2022/07/31 03:39:46;;;;;;;0.60;0.60;;;;;;;16.10;100.00;98060.55;2167457;81;20921;-85
2022/07/31 03:42:46;;;;;;;1.17;0.78;;;;;;;16.11;100.00;98066.67;2142174;82;20931;-84
2022/07/31 03:45:47;;;;;;;0.85;0.60;;;;;;;16.08;100.00;98066.30;2167470;81;20909;-84
2022/07/31 03:48:50;;;;;;;1.32;0.70;;;;;;;16.06;100.00;98064.59;2142445;82;20876;-84
2022/07/31 03:51:48;;;;;;;1.00;0.85;;;;;;;16.04;100.00;98067.27;2167542;81;21329;-84
2022/07/31 03:54:48;;;;;;;1.07;0.98;;;;;;;16.01;100.00;98065.15;2142119;82;20946;-83
2022/07/31 03:57:48;;;;;;;1.90;0.98;;;;;;;15.96;100.00;98057.36;2167647;81;20905;-85
2022/07/31 04:00:49;;;;;;;1.15;1.15;;;;;;;15.94;100.00;98059.16;2141091;82;20928;-84
2022/07/31 04:03:52;;;;;;;1.75;1.07;;;;;;;15.91;100.00;98062.72;2157383;82;20949;-83
2022/07/31 04:06:52;;;;;;;0.90;0.90;;;;;;;15.89;100.00;98066.28;2157444;83;20918;-82
2022/07/31 04:09:52;;;;;;;3.85;1.22;;;;;;;15.85;100.00;98063.30;2157138;83;20925;-81
2022/07/31 04:12:53;;;;;;;2.35;1.15;;;;;;;15.83;100.00;98063.78;2157344;83;20926;-82
2022/07/31 04:15:53;;;;;;;2.60;1.17;;;;;;;15.82;100.00;98066.00;2157432;83;20957;-84
2022/07/31 04:18:54;;;;;;;1.12;1.00;;;;;;;15.80;100.00;98062.09;2157416;83;20962;-83
2022/07/31 04:21:54;;;;;;;3.85;1.00;;;;;;;15.79;100.00;98066.94;2157324;83;21313;-83
2022/07/31 04:24:54;;;;;;;2.00;0.90;;;;;;;15.75;100.00;98061.32;2156799;83;20929;-83
2022/07/31 04:27:55;;;;;;;2.70;1.00;;;;;;;15.72;100.00;98061.38;2157553;83;20921;-84
2022/07/31 04:30:55;;;;;;;1.52;1.00;;;;;;;15.71;100.00;98065.36;2157391;83;21329;-84
2022/07/31 04:33:56;;;;;;;0.90;0.90;;;;;;;15.71;100.00;98064.91;2157116;83;20926;-84
2022/07/31 04:36:57;;;;;;;0.90;0.90;;;;;;;15.69;100.00;98065.39;2157139;83;20944;-83
2022/07/31 04:39:57;;;;;;;1.37;0.78;;;;;;;15.68;100.00;98062.80;2157479;83;20918;-84
2022/07/31 04:42:57;;;;;;;1.12;1.12;;;;;;;15.66;100.00;98066.77;2156991;83;21011;-83
2022/07/31 04:45:57;;;;;;;0.88;0.88;;;;;;;15.67;100.00;98076.84;2157732;83;20910;-86
2022/07/31 04:48:58;;;;;;;1.10;0.80;;;;;;;15.64;100.00;98073.83;2157378;83;20933;-83
2022/07/31 04:51:58;;;;;;;1.80;0.80;;;;;;;15.64;100.00;98069.02;2157163;83;20982;-84
2022/07/31 04:54:58;;;;;;;0.75;0.75;;;;;;;15.63;100.00;98072.10;2157370;83;20953;-84
2022/07/31 04:57:59;;;;;;;3.83;1.17;;;;;;;15.65;100.00;98078.65;2157563;83;20922;-83
2022/07/31 05:00:59;;;;;;;1.25;1.22;;;;;;;15.63;100.00;98079.99;2158068;82;21288;-86
2022/07/31 05:04:00;;;;;;;1.00;1.00;;;;;;;15.61;100.00;98085.73;2164314;82;20942;-84
2022/07/31 05:07:00;;;;;;;1.00;1.00;;;;;;;15.62;100.00;98086.16;2221119;79;20917;-86
2022/07/31 05:10:01;;;;;;;2.08;0.70;;;;;;;15.62;100.00;98090.09;2220703;79;20897;-85
2022/07/31 05:13:01;;;;;;;1.65;0.50;;;;;;;15.65;100.00;98097.92;2221012;79;20909;-85
2022/07/31 05:16:01;;;;;;;0.68;0.55;;;;;;;15.64;100.00;98104.09;2220910;79;21292;-85
2022/07/31 05:19:02;;;;;;;0.70;0.60;;;;;;;15.62;100.00;98097.13;2220187;79;21079;-85
2022/07/31 05:22:03;;;;;;;0.40;0.40;;;;;;;15.62;100.00;98096.67;2219931;79;20944;-84
2022/07/31 05:25:03;;;;;;;0.50;0.50;;;;;;;15.60;100.00;98102.38;2220570;79;21380;-85
2022/07/31 05:28:03;;;;;;;2.15;0.70;;;;;;;15.59;100.00;98092.76;2220204;79;20961;-86
2022/07/31 05:31:03;;;;;;;1.02;0.40;;;;;;;15.59;100.00;98098.89;2220174;79;20917;-85
2022/07/31 05:34:04;;;;;;;1.75;0.60;;;;;;;15.63;100.00;98105.44;2220407;79;20913;-85
2022/07/31 05:37:04;;;;;;;0.65;0.65;;;;;;;15.65;100.00;98107.58;2220114;80;20932;-85
2022/07/31 05:40:05;;;;;;;0.55;0.50;;;;;;;15.64;100.00;98102.77;2220289;79;21250;-86
2022/07/31 05:43:05;;;;;;;0.70;0.70;;;;;;;15.68;100.00;98109.70;2220652;79;20901;-85
2022/07/31 05:46:07;;;;;;;2.35;2.15;;;;;;;15.70;100.00;98113.17;2220669;80;21471;-85
2022/07/31 05:49:10;;;;;;;0.72;0.72;;;;;;;15.75;100.00;98108.69;2220685;79;20937;-85
2022/07/31 05:52:10;;;;;;;0.50;0.50;;;;;;;15.82;100.00;98108.97;2221492;79;20866;-85
2022/07/31 05:55:11;;;;;;;0.70;0.50;;;;;;;15.91;100.00;98114.05;2220879;80;21257;-84
2022/07/31 05:58:11;;;;;;;0.50;0.50;;;;;;;16.00;100.00;98108.17;2221081;79;20932;-85
2022/07/31 06:01:11;;;;;;;1.05;0.50;;;;;;;16.11;100.00;98110.11;2220477;79;20939;-84
2022/07/31 06:04:12;;;;;;;0.65;0.50;;;;;;;16.20;100.00;98109.46;2208452;80;20917;-85
2022/07/31 06:07:12;;;;;;;0.50;0.50;;;;;;;16.25;100.00;98114.62;2207932;79;20893;-84
2022/07/31 06:10:13;;;;;;;1.40;0.70;;;;;;;16.28;100.00;98109.29;2207693;80;20933;-85
2022/07/31 06:13:13;;;;;;;0.30;0.30;;;;;;;16.27;100.00;98111.50;2207573;81;20890;-84
2022/07/31 06:16:13;;;;;;;0.40;0.40;;;;;;;16.22;100.00;98117.33;2207725;79;20949;-84
2022/07/31 06:19:14;;;;;;;0.40;0.40;;;;;;;16.28;100.00;98111.92;2207440;80;20985;-84
2022/07/31 06:22:14;;;;;;;2.12;0.40;;;;;;;16.37;100.00;98112.16;2207120;80;20952;-84
2022/07/31 06:25:15;;;;;;;0.50;0.47;;;;;;;16.40;100.00;98120.00;2207831;80;20929;-84
2022/07/31 06:28:15;;;;;;;0.62;0.60;;;;;;;16.51;100.00;98121.52;2207762;80;20886;-86
2022/07/31 06:31:15;;;;;;;0.80;0.40;;;;;;;16.55;100.00;98113.95;2207364;80;20973;-84
2022/07/31 06:34:16;;;;;;;0.50;0.50;;;;;;;16.53;100.00;98128.93;2207450;80;20953;-85
2022/07/31 06:37:16;;;;;;;0.57;0.40;;;;;;;16.53;100.00;98125.42;2207239;81;21264;-86
2022/07/31 06:40:17;;;;;;;0.55;0.40;;;;;;;16.47;100.00;98131.70;2207375;80;20902;-85
2022/07/31 06:43:17;;;;;;;0.40;0.40;;;;;;;16.40;100.00;98130.53;2207390;80;20926;-83
2022/07/31 06:46:17;;;;;;;2.35;0.40;;;;;;;16.39;100.00;98132.75;2206808;80;21323;-84
2022/07/31 06:49:18;;;;;;;1.37;0.60;;;;;;;16.36;100.00;98131.05;2207109;80;20948;-85
2022/07/31 06:52:18;;;;;;;0.57;0.40;;;;;;;16.38;100.00;98127.93;2207440;80;20898;-85
2022/07/31 06:55:19;;;;;;;0.78;0.50;;;;;;;16.38;100.00;98124.43;2207024;80;20894;-85
2022/07/31 06:58:19;;;;;;;1.62;0.65;;;;;;;16.36;100.00;98125.78;2207297;81;20905;-87
2022/07/31 07:01:20;;;;;;;0.50;0.50;;;;;;;16.34;100.00;98132.85;2207218;80;20944;-86
2022/07/31 07:04:20;;;;;;;0.80;0.80;;;;;;;16.30;100.00;98136.91;2227232;79;20908;-85
2022/07/31 07:07:20;;;;;;;2.08;1.87;;;;;;;16.29;100.00;98129.91;2227827;79;20933;-86
2022/07/31 07:10:21;;;;;;;0.82;0.68;;;;;;;16.32;100.00;98133.79;2227967;79;20909;-85
2022/07/31 07:13:21;;;;;;;1.77;0.45;;;;;;;16.30;100.00;98131.19;2227334;79;20920;-85
2022/07/31 07:16:22;;;;;;;1.32;0.30;;;;;;;16.29;100.00;98145.70;2227009;79;20976;-84
2022/07/31 07:19:22;;;;;;;1.17;0.50;;;;;;;16.23;100.00;98149.34;2227447;79;21408;-84
2022/07/31 07:22:22;;;;;;;0.40;0.40;;;;;;;16.18;100.00;98148.58;2227378;79;20941;-84
2022/07/31 07:25:23;;;;;;;0.50;0.50;;;;;;;16.13;100.00;98159.20;2227515;80;20892;-85
2022/07/31 07:28:23;;;;;;;1.25;0.40;;;;;;;16.19;100.00;98160.39;2227616;79;21363;-85
2022/07/31 07:31:24;;;;;;;0.40;0.40;;;;;;;16.15;100.00;98158.72;2228224;79;20937;-86
2022/07/31 07:34:24;;;;;;;0.93;0.57;;;;;;;16.19;100.00;98156.89;2228277;80;20877;-85
2022/07/31 07:37:27;;;;;;;0.75;0.40;;;;;;;16.22;100.00;98162.95;2228319;80;21303;-85
2022/07/31 07:40:27;;;;;;;0.35;0.35;;;;;;;16.22;100.00;98166.91;2228302;79;20915;-84
2022/07/31 07:43:28;;;;;;;0.33;0.33;;;;;;;16.20;100.00;98159.48;2228322;79;21287;-85
2022/07/31 07:46:28;;;;;;;1.75;0.30;;;;;;;16.20;100.00;98163.89;2228338;79;20971;-85
2022/07/31 07:49:28;;;;;;;0.62;0.40;;;;;;;16.19;100.00;98167.42;2228270;79;20869;-86
2022/07/31 07:52:29;;;;;;;0.45;0.40;;;;;;;16.20;100.00;98175.73;2228293;79;21236;-84
2022/07/31 07:55:29;;;;;;;3.52;0.30;;;;;;;16.18;100.00;98169.64;2228202;79;20920;-84
2022/07/31 07:58:29;;;;;;;0.75;0.60;;;;;;;16.25;100.00;98169.48;2228508;79;20928;-85
2022/07/31 08:01:30;;;;;;;0.50;0.50;;;;;;;16.34;100.00;98175.44;2228250;79;21339;-85
2022/07/31 08:04:30;;;;;;;0.70;0.30;;;;;;;16.38;100.00;98172.70;2228104;79;20928;-86
2022/07/31 08:07:31;;;;;;;0.30;0.30;;;;;;;16.44;100.00;98175.20;2227983;79;20901;-84
2022/07/31 08:10:31;;;;;;;0.55;0.30;;;;;;;16.47;100.00;98172.95;2228183;79;20892;-84
2022/07/31 08:13:31;;;;;;;0.37;0.30;;;;;;;16.52;100.00;98178.56;2228193;79;20956;-85
2022/07/31 08:16:33;;;;;;;0.30;0.30;;;;;;;16.53;100.00;98178.98;2227848;79;21316;-86
2022/07/31 08:19:33;;;;;;;0.57;0.40;;;;;;;16.59;100.00;98178.43;2180603;82;20908;-85
2022/07/31 08:22:33;;;;;;;0.30;0.30;;;;;;;16.62;100.00;98181.86;2167436;82;20968;-84
2022/07/31 08:25:34;;;;;;;0.30;0.30;;;;;;;16.54;100.00;98182.03;2141816;83;21351;-86
2022/07/31 08:28:34;;;;;;;0.47;0.28;;;;;;;16.44;100.00;98198.91;2167065;82;20914;-85
2022/07/31 08:31:35;;;;;;;0.30;0.30;;;;;;;16.40;100.00;98194.61;2141970;83;20911;-85
2022/07/31 08:34:35;;;;;;;0.57;0.50;;;;;;;16.47;100.00;98188.76;2167624;82;21292;-86
2022/07/31 08:37:35;;;;;;;1.35;0.40;;;;;;;16.50;100.00;98192.22;2141953;83;20924;-85
2022/07/31 08:40:36;;;;;;;0.30;0.30;;;;;;;16.61;100.00;98199.02;2167795;82;20877;-86
2022/07/31 08:43:36;;;;;;;0.70;0.50;;;;;;;16.59;100.00;98192.47;2142106;83;21327;-85
2022/07/31 08:46:37;;;;;;;2.60;0.40;;;;;;;16.57;100.00;98202.17;2167493;82;21011;-85
2022/07/31 08:49:37;;;;;;;0.60;0.60;;;;;;;16.52;100.00;98200.09;2142292;83;21287;-87
2022/07/31 08:52:38;;;;;;;1.12;0.47;;;;;;;16.50;100.00;98203.21;2167850;82;20925;-86
2022/07/31 08:55:38;;;;;;;0.47;0.40;;;;;;;16.47;100.00;98213.37;2142595;83;20971;-85
2022/07/31 08:58:38;;;;;;;0.53;0.40;;;;;;;16.43;100.00;98205.53;2168332;82;20929;-85
2022/07/31 09:01:39;;;;;;;0.40;0.40;;;;;;;16.33;100.00;98208.81;2142232;83;20987;-85
2022/07/31 09:04:39;;;;;;;0.33;0.33;;;;;;;16.27;100.00;98214.21;2167210;82;20944;-85
2022/07/31 09:07:39;;;;;;;0.60;0.60;;;;;;;16.20;100.00;98212.60;2167947;82;20920;-85
2022/07/31 09:10:40;;;;;;;1.55;0.50;;;;;;;16.15;100.00;98215.78;2142451;83;21292;-85
2022/07/31 09:13:40;;;;;;;1.90;0.85;;;;;;;16.11;100.00;98224.64;2167795;82;20925;-85
2022/07/31 09:16:41;;;;;;;0.60;0.60;;;;;;;16.10;100.00;98218.95;2142596;83;20975;-85
2022/07/31 09:19:46;;;;;;;1.67;0.95;;;;;;;16.15;100.00;98215.78;2168069;82;21277;-85
2022/07/31 09:22:43;;;;;;;2.17;1.35;;;;;;;16.12;100.00;98223.74;2128761;83;20955;-85
2022/07/31 09:25:44;;;;;;;1.10;1.10;;;;;;;16.21;100.00;98230.14;2167914;82;21312;-85
2022/07/31 09:28:44;;;;;;;1.10;1.00;;;;;;;16.31;100.00;98222.46;2142502;83;20947;-85
2022/07/31 09:31:45;;;;;;;0.68;0.68;;;;;;;16.35;100.00;98214.91;2167625;82;20913;-86
2022/07/31 09:34:45;;;;;;;3.20;0.90;;;;;;;16.35;100.00;98224.13;2142363;83;20932;-86
2022/07/31 09:37:45;;;;;;;0.85;0.85;;;;;;;16.36;100.00;98224.55;2167574;82;21309;-85
2022/07/31 09:40:46;;;;;;;1.70;1.10;;;;;;;16.30;100.00;98227.31;2142114;83;20943;-87
2022/07/31 09:43:46;;;;;;;0.80;0.80;;;;;;;16.23;100.00;98232.29;2167687;82;20909;-86
2022/07/31 09:46:48;;;;;;;1.00;1.00;;;;;;;16.27;100.00;98233.96;2141948;83;21331;-85
2022/07/31 09:49:47;;;;;;;1.02;1.00;;;;;;;16.27;100.00;98235.27;2167464;82;20956;-85
2022/07/31 09:52:47;;;;;;;1.02;1.02;;;;;;;16.17;100.00;98241.18;2141728;83;20938;-85
2022/07/31 09:55:48;;;;;;;1.00;1.00;;;;;;;16.12;100.00;98236.91;2167616;82;21325;-86
2022/07/31 09:58:48;;;;;;;1.35;1.25;;;;;;;16.03;100.00;98243.67;2141985;83;20916;-87
2022/07/31 10:01:49;;;;;;;1.40;1.30;;;;;;;15.99;100.00;98243.31;2167812;82;21001;-86
2022/07/31 10:04:49;;;;;;;1.20;1.20;;;;;;;15.97;100.00;98252.55;2137841;83;20956;-86
2022/07/31 10:07:49;;;;;;;1.12;1.12;;;;;;;15.91;100.00;98245.64;2169378;82;21370;-87
2022/07/31 10:10:50;;;;;;;1.17;1.10;;;;;;;15.90;100.00;98245.67;2169431;82;20936;-85
2022/07/31 10:13:50;;;;;;;1.30;1.30;;;;;;;15.89;100.00;98250.06;2169489;82;20932;-86
2022/07/31 10:16:51;;;;;;;1.10;1.10;;;;;;;15.86;100.00;98255.39;2169521;82;21356;-86
2022/07/31 10:19:51;;;;;;;1.55;1.45;;;;;;;15.83;100.00;98262.02;2169608;82;20913;-86
2022/07/31 10:22:51;;;;;;;1.67;1.57;;;;;;;15.75;100.00;98262.61;2169385;82;21056;-88
2022/07/31 10:25:52;;;;;;;1.90;1.80;;;;;;;15.73;100.00;98265.72;2169096;82;21284;-85
2022/07/31 10:28:52;;;;;;;2.40;2.30;;;;;;;15.73;100.00;98264.84;2169216;82;21288;-87
2022/07/31 10:31:53;;;;;;;2.70;2.50;;;;;;;15.72;100.00;98265.30;2169420;82;20909;-86
2022/07/31 10:34:53;;;;;;;2.37;2.27;;;;;;;15.71;100.00;98271.91;2169413;82;20968;-86
2022/07/31 10:37:53;;;;;;;2.37;2.27;;;;;;;15.64;100.00;98271.14;2168995;82;21340;-86
2022/07/31 10:40:54;;;;;;;3.05;2.85;;;;;;;15.60;100.00;98271.64;2168936;82;20937;-85
2022/07/31 10:43:54;;;;;;;3.70;3.40;;;;;;;15.57;100.00;98278.66;2169528;82;20940;-86
2022/07/31 10:46:55;;;;;;;3.40;3.20;;;;;;;15.55;100.00;98272.11;2169382;82;21385;-87
2022/07/31 10:49:55;;;;;;;3.98;3.70;;;;;;;15.54;100.00;98276.08;2169700;82;20957;-86
2022/07/31 10:52:55;;;;;;;5.30;3.58;;;;;;;15.53;100.00;98279.16;2169626;82;20945;-87
2022/07/31 10:55:56;;;;;;;4.05;3.72;;;;;;;15.49;100.00;98270.02;2169545;82;20993;-87
2022/07/31 10:58:56;;;;;;;3.75;3.37;;;;;;;15.50;100.00;98279.66;2169461;82;21305;-87
2022/07/31 11:01:57;;;;;;;4.10;3.80;;;;;;;15.49;100.00;98289.75;2169614;82;20924;-86
2022/07/31 11:04:57;;;;;;;3.90;3.60;;;;;;;15.53;100.00;98292.75;2158079;82;20977;-87
2022/07/31 11:07:57;;;;;;;3.70;3.50;;;;;;;15.53;100.00;98300.20;2157462;83;21316;-87
2022/07/31 11:10:59;;;;;;;4.08;3.77;;;;;;;15.55;100.00;98298.86;2157526;83;20921;-88
2022/07/31 11:13:59;;;;;;;3.80;3.60;;;;;;;15.61;100.00;98304.08;2157666;83;20949;-87
2022/07/31 11:16:59;;;;;;;4.37;3.02;;;;;;;15.63;100.00;98306.23;2157426;83;20992;-86
2022/07/31 11:19:59;;;;;;;3.90;3.50;;;;;;;15.58;100.00;98306.28;2157208;83;21254;-85
2022/07/31 11:22:59;;;;;;;3.60;3.40;;;;;;;15.57;100.00;98304.95;2157202;83;20921;-88
2022/07/31 11:26:00;;;;;;;3.72;3.52;;;;;;;15.58;100.00;98302.78;2157677;83;21116;-90
2022/07/31 11:29:00;;;;;;;3.35;2.90;;;;;;;15.59;100.00;98317.23;2157673;83;21317;-87
2022/07/31 11:32:01;;;;;;;3.22;3.02;;;;;;;15.58;100.00;98309.36;2157842;83;20953;-87
2022/07/31 11:35:01;;;;;;;3.02;2.90;;;;;;;15.60;100.00;98306.25;2158044;83;20915;-88
2022/07/31 11:38:02;;;;;;;3.75;3.45;;;;;;;15.64;100.00;98315.00;2157680;83;20954;-86
2022/07/31 11:41:02;;;;;;;3.72;3.35;;;;;;;15.67;100.00;98317.58;2157947;83;21250;-87
2022/07/31 11:44:02;;;;;;;3.40;3.20;;;;;;;15.68;100.00;98309.66;2157574;83;20937;-86
2022/07/31 11:47:03;;;;;;;3.58;3.25;;;;;;;15.65;100.00;98318.92;2157966;83;21007;-86
2022/07/31 11:50:03;;;;;;;3.40;3.20;;;;;;;15.65;100.00;98317.61;2157588;83;20945;-84
2022/07/31 11:53:05;;;;;;;3.67;3.33;;;;;;;15.68;100.00;98322.81;2157229;83;21281;-85
2022/07/31 11:56:04;;;;;;;4.00;3.70;;;;;;;15.67;100.00;98324.16;2157096;83;20899;-84
2022/07/31 11:59:04;;;;;;;3.83;3.52;;;;;;;15.64;100.00;98323.76;2157153;83;21094;-83
2022/07/31 12:02:05;;;;;;;4.17;3.80;;;;;;;15.67;100.00;98319.77;2157327;83;21324;-82
2022/07/31 12:05:05;;;;;;;4.20;3.90;;;;;;;15.68;100.00;98333.34;2162578;81;21044;-85
2022/07/31 12:08:06;;;;;;;5.05;4.10;;;;;;;15.75;100.00;98327.08;2220836;80;20913;-85
2022/07/31 12:11:07;;;;;;;5.28;4.83;;;;;;;15.77;100.00;98325.29;2220724;79;20932;-85
2022/07/31 12:14:07;;;;;;;4.75;4.30;;;;;;;15.80;100.00;98321.29;2221240;80;20878;-87
2022/07/31 12:17:09;;;;;;;4.40;4.00;;;;;;;15.90;100.00;98324.18;2220921;79;21311;-85
2022/07/31 12:20:10;;;;;;;4.90;4.50;;;;;;;15.98;100.00;98327.98;2174529;82;20912;-84
2022/07/31 12:23:11;;;;;;;4.47;4.08;;;;;;;16.01;100.00;98325.75;2221241;79;21291;-85
2022/07/31 12:26:11;;;;;;;4.40;4.00;;;;;;;15.96;100.00;98328.91;2220487;79;20908;-86
2022/07/31 12:29:11;;;;;;;5.12;4.35;;;;;;;15.93;100.00;98336.42;2220871;79;20921;-84
2022/07/31 12:32:11;;;;;;;5.03;4.30;;;;;;;15.91;100.00;98337.76;2220462;80;21386;-84
2022/07/31 12:35:12;;;;;;;4.20;3.90;;;;;;;15.88;100.00;98340.45;2220674;79;20877;-85
2022/07/31 12:38:12;;;;;;;3.55;3.25;;;;;;;15.90;100.00;98351.81;2220539;79;20877;-85
2022/07/31 12:41:12;;;;;;;4.15;3.85;;;;;;;15.87;100.00;98335.20;2220470;80;20916;-85
2022/07/31 12:44:13;;;;;;;4.75;4.05;;;;;;;15.87;100.00;98341.34;2220763;79;20949;-85
2022/07/31 12:47:13;;;;;;;4.80;3.55;;;;;;;15.88;100.00;98343.08;2220548;80;20964;-85
2022/07/31 12:50:14;;;;;;;7.70;3.87;;;;;;;15.89;100.00;98351.39;2220989;79;20917;-84
2022/07/31 12:53:14;;;;;;;3.90;3.50;;;;;;;15.91;100.00;98346.97;2220540;79;21319;-85
2022/07/31 12:56:14;;;;;;;3.52;3.33;;;;;;;15.95;100.00;98348.23;2220214;79;20932;-85
2022/07/31 12:59:15;;;;;;;3.62;3.33;;;;;;;15.91;100.00;98344.34;2220567;79;20912;-84
2022/07/31 13:02:16;;;;;;;5.28;4.12;;;;;;;15.95;100.00;98343.84;2220210;80;21067;-83
2022/07/31 13:05:16;;;;;;;3.72;3.45;;;;;;;15.98;100.00;98345.55;2226796;79;20998;-85
2022/07/31 13:08:16;;;;;;;3.45;3.22;;;;;;;15.97;100.00;98347.76;2227300;79;20936;-83
2022/07/31 13:11:16;;;;;;;3.70;3.40;;;;;;;15.97;100.00;98353.02;2227858;79;20900;-85
2022/07/31 13:14:17;;;;;;;4.67;3.50;;;;;;;16.02;100.00;98351.18;2227726;80;20912;-84
2022/07/31 13:17:17;;;;;;;5.10;2.98;;;;;;;16.03;100.00;98355.09;2227100;79;21003;-83
2022/07/31 13:20:18;;;;;;;3.02;2.83;;;;;;;16.10;100.00;98358.48;2227228;79;20936;-83
2022/07/31 13:23:20;;;;;;;3.55;3.02;;;;;;;16.10;100.00;98362.44;2227976;79;20942;-84
2022/07/31 13:26:21;;;;;;;4.40;3.05;;;;;;;16.10;100.00;98365.94;2216069;80;20908;-84
2022/07/31 13:29:21;;;;;;;3.50;2.75;;;;;;;16.13;100.00;98366.34;2227700;79;21328;-83
2022/07/31 13:32:21;;;;;;;3.20;2.95;;;;;;;16.12;100.00;98360.65;2227980;79;20939;-83
2022/07/31 13:35:24;;;;;;;3.33;3.02;;;;;;;16.10;100.00;98359.36;2227658;79;20896;-82
2022/07/31 13:38:22;;;;;;;3.70;3.40;;;;;;;16.10;100.00;98370.34;2227618;79;20966;-81
2022/07/31 13:41:22;;;;;;;7.05;4.22;;;;;;;16.11;100.00;98364.18;2227921;80;20912;-84
2022/07/31 13:44:23;;;;;;;4.58;3.22;;;;;;;16.11;100.00;98368.13;2228039;79;21282;-81
2022/07/31 13:47:23;;;;;;;3.10;2.80;;;;;;;16.06;100.00;98373.48;2227294;79;20912;-84
2022/07/31 13:50:23;;;;;;;5.62;3.27;;;;;;;16.02;100.00;98375.74;2227901;79;20948;-83
2022/07/31 13:53:24;;;;;;;3.15;2.85;;;;;;;15.97;100.00;98368.81;2227353;79;20960;-84
2022/07/31 13:56:24;;;;;;;6.58;3.12;;;;;;;15.94;100.00;98373.69;2227761;80;20933;-83